Terminal Aerodrome Forecast
Issued by NWS

Home | Current Version | Previous Version | Text Only | Print | Product List | Glossary On
Versions: 1 2 3 4 5 6 7 8 9 10 11 12 13
000
FTUS44 KLZK 052300
TAFLLQ
TAF
KLLQ 052338Z 0600/0624 14010KT P6SM SCT070 SCT250
     FM060100 15006KT P6SM FEW070 SCT250
     FM061500 16008G16KT P6SM SCT040 SCT150=

USA.gov is the U.S. government's official web portal to all federal, state and local government web resources and services.